Time;durP1;ratioP1;P1;durP2;ratioP2;P2;SDS_P1;SDS_P2;PMS_P1;PMS_P2;Temp;Humidity;BMP_temperature;BMP_pressure;BME280_temperature;BME280_humidity;BME280_pressure;Samples;Min_cycle;Max_cycle;Signal;HPM_P1;HPM_P2
2021/12/28 00:00:27;;;;;;;1.80;0.90;;;5.70;99.90;;;;;;4993976;28;20438;-69
2021/12/28 00:02:54;;;;;;;12.13;1.20;;;5.70;99.90;;;;;;4986287;28;20196;-68
2021/12/28 00:05:21;;;;;;;1.40;0.70;;;5.70;99.90;;;;;;4988351;28;20557;-68
2021/12/28 00:07:47;;;;;;;7.60;0.80;;;5.70;99.90;;;;;;4991423;28;20785;-68
2021/12/28 00:10:15;;;;;;;2.20;1.27;;;5.70;99.90;;;;;;4989496;28;20501;-69
2021/12/28 00:12:41;;;;;;;5.50;0.87;;;5.60;99.90;;;;;;4993338;28;20530;-69
2021/12/28 00:17:59;;;;;;;4.37;0.97;;;5.70;99.90;;;;;;4986356;28;20528;-68
2021/12/28 00:20:31;;;;;;;4.50;1.23;;;5.80;99.90;;;;;;4987997;28;20477;-71
2021/12/28 00:22:57;;;;;;;9.33;1.40;;;5.80;99.90;;;;;;4986011;28;20446;-68
2021/12/28 00:25:23;;;;;;;2.83;1.13;;;5.80;99.90;;;;;;4990205;28;20513;-68
2021/12/28 00:27:49;;;;;;;6.30;1.20;;;5.90;99.90;;;;;;4991978;28;20970;-68
2021/12/28 00:30:15;;;;;;;1.40;0.77;;;5.90;99.90;;;;;;4986794;28;20234;-68
2021/12/28 00:32:41;;;;;;;3.53;1.80;;;5.80;99.90;;;;;;4992450;28;20525;-68
2021/12/28 00:35:07;;;;;;;6.53;1.73;;;5.80;99.90;;;;;;4989112;28;20838;-68
2021/12/28 00:37:33;;;;;;;2.30;1.10;;;5.80;99.90;;;;;;4992153;28;20207;-68
2021/12/28 00:39:59;;;;;;;4.50;1.27;;;5.80;99.90;;;;;;4993008;28;20473;-69
2021/12/28 00:42:24;;;;;;;6.07;1.30;;;5.70;99.90;;;;;;4989474;28;20191;-69
2021/12/28 00:44:50;;;;;;;5.73;1.20;;;5.70;99.90;;;;;;4987922;28;20211;-69
2021/12/28 00:47:16;;;;;;;11.17;1.43;;;5.60;99.90;;;;;;4987320;28;20179;-69
2021/12/28 00:49:41;;;;;;;5.33;1.90;;;5.80;99.90;;;;;;4994195;28;20233;-69
2021/12/28 00:52:07;;;;;;;4.50;1.30;;;5.70;99.90;;;;;;4992983;28;20202;-69
2021/12/28 00:54:33;;;;;;;1.97;0.83;;;5.80;99.90;;;;;;4990852;28;20198;-69
2021/12/28 00:57:01;;;;;;;2.93;1.07;;;5.90;99.90;;;;;;4991848;28;20446;-69
2021/12/28 00:59:27;;;;;;;6.70;1.40;;;5.90;99.90;;;;;;4993168;28;20234;-69
2021/12/28 01:01:53;;;;;;;9.03;1.73;;;5.90;99.90;;;;;;4992185;28;20449;-69
2021/12/28 01:04:18;;;;;;;3.00;0.90;;;6.00;99.90;;;;;;4990048;28;20467;-69
2021/12/28 01:06:45;;;;;;;10.97;1.60;;;5.90;99.90;;;;;;4987017;28;20223;-69
2021/12/28 01:09:11;;;;;;;8.73;1.23;;;6.00;99.90;;;;;;4987003;28;20482;-69
2021/12/28 01:11:37;;;;;;;8.10;1.10;;;6.00;99.90;;;;;;4992813;28;20198;-69
2021/12/28 01:14:04;;;;;;;4.93;1.50;;;6.00;99.90;;;;;;4991048;28;20454;-69
2021/12/28 01:16:29;;;;;;;9.93;1.70;;;6.00;99.90;;;;;;4984911;28;20179;-69
2021/12/28 01:18:55;;;;;;;7.30;1.47;;;5.90;99.90;;;;;;4988131;28;20919;-69
2021/12/28 01:21:21;;;;;;;2.30;1.17;;;5.80;99.90;;;;;;4992919;28;20253;-69
2021/12/28 01:23:47;;;;;;;6.00;1.67;;;5.80;99.90;;;;;;4990455;28;20194;-69
2021/12/28 01:26:13;;;;;;;17.33;1.43;;;5.80;99.90;;;;;;4981999;28;20470;-69
2021/12/28 01:28:39;;;;;;;11.30;1.20;;;5.80;99.90;;;;;;4988803;28;20263;-69
2021/12/28 01:31:05;;;;;;;2.37;1.00;;;5.80;99.90;;;;;;4992140;28;21022;-69
2021/12/28 01:33:31;;;;;;;9.83;2.00;;;5.80;99.90;;;;;;4992721;28;20431;-69
2021/12/28 01:35:58;;;;;;;11.27;1.60;;;5.80;99.90;;;;;;4990817;28;20484;-69
2021/12/28 01:38:24;;;;;;;4.87;1.97;;;6.00;99.90;;;;;;4989571;28;20188;-69
2021/12/28 01:40:52;;;;;;;5.67;1.80;;;5.90;99.90;;;;;;4993562;28;20449;-68
2021/12/28 01:43:20;;;;;;;6.53;2.00;;;6.00;99.90;;;;;;4988550;28;20442;-69
2021/12/28 01:45:55;;;;;;;9.30;1.93;;;5.90;99.90;;;;;;4985610;28;20469;-69
2021/12/28 01:48:39;;;;;;;8.60;1.30;;;5.90;99.90;;;;;;4991218;28;20433;-69
2021/12/28 01:51:19;;;;;;;3.30;1.07;;;5.90;99.90;;;;;;4992102;28;20442;-68
2021/12/28 01:53:47;;;;;;;8.27;1.47;;;6.00;99.90;;;;;;4993238;28;21118;-69
2021/12/28 01:56:38;;;;;;;2.73;1.10;;;5.90;99.90;;;;;;4994191;28;20446;-69
2021/12/28 01:59:05;;;;;;;5.60;1.53;;;5.90;99.90;;;;;;4983093;28;20508;-69
2021/12/28 02:01:31;;;;;;;7.43;1.27;;;5.90;99.90;;;;;;4991668;28;20455;-69
2021/12/28 02:03:57;;;;;;;5.67;1.37;;;6.00;99.90;;;;;;4992444;28;21064;-69
2021/12/28 02:06:25;;;;;;;8.60;3.10;;;5.80;99.90;;;;;;4988960;28;20451;-69
2021/12/28 02:08:52;;;;;;;4.33;1.43;;;5.90;99.90;;;;;;4999341;28;20445;-69
2021/12/28 02:11:18;;;;;;;12.90;2.10;;;5.90;99.90;;;;;;4991706;28;20454;-69
2021/12/28 02:13:44;;;;;;;14.73;2.60;;;5.90;99.90;;;;;;4994654;28;20442;-68
2021/12/28 02:16:10;;;;;;;11.00;1.70;;;5.90;99.90;;;;;;4991474;28;20450;-68
2021/12/28 02:18:37;;;;;;;5.30;1.80;;;6.00;99.90;;;;;;4995913;28;21303;-69
2021/12/28 02:21:06;;;;;;;13.97;2.10;;;6.00;99.90;;;;;;4992934;28;20206;-68
2021/12/28 02:23:32;;;;;;;5.20;1.30;;;6.00;99.90;;;;;;4995746;28;20447;-68
2021/12/28 02:25:58;;;;;;;2.00;1.20;;;6.10;99.90;;;;;;4989283;28;20474;-68
2021/12/28 02:28:23;;;;;;;4.13;1.60;;;6.10;99.90;;;;;;4998493;28;20446;-69
2021/12/28 02:30:52;;;;;;;8.97;1.90;;;6.10;99.90;;;;;;4994811;28;20259;-68
2021/12/28 02:33:20;;;;;;;12.73;1.60;;;6.10;99.90;;;;;;4991260;28;20298;-68
2021/12/28 02:35:45;;;;;;;5.43;1.40;;;6.10;99.90;;;;;;4991316;28;20473;-69
2021/12/28 02:38:12;;;;;;;4.80;2.10;;;6.10;99.90;;;;;;4995763;28;20442;-69
2021/12/28 02:40:40;;;;;;;2.00;0.87;;;6.10;99.90;;;;;;4995609;28;20184;-68
2021/12/28 02:43:09;;;;;;;7.90;2.13;;;6.00;99.90;;;;;;4990807;28;20449;-68
2021/12/28 02:45:38;;;;;;;3.80;1.57;;;6.00;99.90;;;;;;4991341;28;20512;-68
2021/12/28 02:48:05;;;;;;;4.77;1.80;;;6.00;99.90;;;;;;4988129;28;20438;-68
2021/12/28 02:50:42;;;;;;;5.90;1.67;;;6.00;99.90;;;;;;4992531;28;21012;-68
2021/12/28 02:53:08;;;;;;;4.70;1.50;;;5.90;99.90;;;;;;4992586;28;20848;-68
2021/12/28 02:55:38;;;;;;;5.20;1.50;;;5.90;99.90;;;;;;4994162;28;20460;-69
2021/12/28 02:58:07;;;;;;;3.60;1.10;;;5.90;99.90;;;;;;4991894;28;20453;-68
2021/12/28 03:00:38;;;;;;;7.90;1.23;;;6.00;99.90;;;;;;4993718;28;20554;-68
2021/12/28 03:03:07;;;;;;;3.00;0.90;;;6.00;99.90;;;;;;4990439;28;20445;-68
2021/12/28 03:05:34;;;;;;;14.50;1.20;;;6.00;99.90;;;;;;4990195;28;20469;-69
2021/12/28 03:08:00;;;;;;;6.00;1.00;;;6.00;99.90;;;;;;4989080;28;20549;-68
2021/12/28 03:10:25;;;;;;;10.90;1.83;;;6.00;99.90;;;;;;4994909;28;20501;-68
2021/12/28 03:12:51;;;;;;;4.10;1.13;;;6.00;99.90;;;;;;4994696;28;20213;-69
2021/12/28 03:15:17;;;;;;;1.70;0.70;;;5.90;99.90;;;;;;4985966;28;20246;-68
2021/12/28 03:17:42;;;;;;;2.03;0.80;;;5.90;99.90;;;;;;4987772;28;20195;-68
2021/12/28 03:20:12;;;;;;;4.50;1.37;;;6.00;99.90;;;;;;4995701;28;20222;-68
2021/12/28 03:22:38;;;;;;;5.47;0.87;;;6.00;99.90;;;;;;4992204;28;20196;-68
2021/12/28 03:25:05;;;;;;;13.10;2.10;;;6.10;99.90;;;;;;4987476;28;21127;-68
2021/12/28 03:27:31;;;;;;;3.57;1.57;;;6.10;99.90;;;;;;4993909;28;20447;-68
2021/12/28 03:29:57;;;;;;;2.57;0.97;;;6.10;99.90;;;;;;4995130;28;20460;-68
2021/12/28 03:32:22;;;;;;;3.67;0.90;;;6.10;99.90;;;;;;4991693;28;20447;-68
2021/12/28 03:34:48;;;;;;;6.13;1.17;;;6.10;99.90;;;;;;4993782;28;20221;-68
2021/12/28 03:37:14;;;;;;;4.07;1.10;;;6.20;99.90;;;;;;4984268;28;20183;-69
2021/12/28 03:39:39;;;;;;;6.40;1.17;;;6.10;99.90;;;;;;4992476;28;20199;-68
2021/12/28 03:42:05;;;;;;;5.80;1.27;;;6.10;99.90;;;;;;4990066;28;20226;-68
2021/12/28 03:44:31;;;;;;;15.73;1.57;;;6.10;99.90;;;;;;4988605;28;20314;-68
2021/12/28 03:46:57;;;;;;;20.33;2.10;;;6.10;99.90;;;;;;4988123;28;20495;-68
2021/12/28 03:49:23;;;;;;;2.53;1.37;;;6.10;99.90;;;;;;4990420;28;20843;-68
2021/12/28 03:51:49;;;;;;;5.23;1.20;;;6.10;99.90;;;;;;4992764;28;20449;-68
2021/12/28 03:54:14;;;;;;;7.37;1.27;;;6.10;99.90;;;;;;4989085;28;20188;-68
2021/12/28 03:56:40;;;;;;;3.10;1.20;;;6.10;99.90;;;;;;4991562;28;20184;-69
2021/12/28 03:59:06;;;;;;;3.07;1.00;;;6.10;99.90;;;;;;4991669;28;20271;-68
2021/12/28 04:01:31;;;;;;;7.27;2.17;;;6.10;99.90;;;;;;4992250;28;20190;-69
2021/12/28 04:03:57;;;;;;;6.27;1.27;;;6.00;99.90;;;;;;4991273;28;20187;-68
2021/12/28 04:06:23;;;;;;;4.97;2.63;;;6.10;99.90;;;;;;4987798;28;20665;-68
2021/12/28 04:08:49;;;;;;;4.30;1.33;;;6.10;99.90;;;;;;4991869;28;20189;-69
2021/12/28 04:11:25;;;;;;;3.40;1.00;;;6.00;99.90;;;;;;4988584;28;20454;-68
2021/12/28 04:13:53;;;;;;;6.43;1.30;;;6.00;99.90;;;;;;5002640;28;20484;-68
2021/12/28 04:16:19;;;;;;;8.53;1.47;;;6.10;99.90;;;;;;4987774;28;20427;-68
2021/12/28 04:18:45;;;;;;;17.77;1.73;;;6.10;99.90;;;;;;4989360;28;20426;-69
2021/12/28 04:21:11;;;;;;;3.93;1.37;;;6.10;99.90;;;;;;4988419;28;20443;-68
2021/12/28 04:23:37;;;;;;;2.57;1.37;;;6.10;99.90;;;;;;4989645;28;20427;-68
2021/12/28 04:26:04;;;;;;;5.77;1.40;;;6.10;99.90;;;;;;4996147;28;20464;-68
2021/12/28 04:28:30;;;;;;;11.20;1.97;;;6.10;99.90;;;;;;4996256;28;20343;-68
2021/12/28 04:30:56;;;;;;;2.00;0.87;;;6.20;99.90;;;;;;4994293;28;21118;-68
2021/12/28 04:33:22;;;;;;;6.60;1.47;;;6.20;99.90;;;;;;4991999;28;20775;-68
2021/12/28 04:35:49;;;;;;;3.43;0.93;;;6.20;99.90;;;;;;4983744;28;20431;-69
2021/12/28 04:38:14;;;;;;;4.53;1.60;;;6.20;99.90;;;;;;4993971;28;20482;-68
2021/12/28 04:40:40;;;;;;;2.13;1.17;;;6.30;99.90;;;;;;4992401;28;20442;-69
2021/12/28 04:43:08;;;;;;;1.60;0.90;;;6.40;99.90;;;;;;4993705;28;20191;-68
2021/12/28 04:45:36;;;;;;;2.10;0.87;;;6.40;99.90;;;;;;4991258;28;20207;-68
2021/12/28 04:48:03;;;;;;;4.23;1.30;;;6.50;99.90;;;;;;4988221;28;20501;-69
2021/12/28 04:50:36;;;;;;;2.67;1.07;;;6.50;99.90;;;;;;4992164;28;20422;-69
2021/12/28 04:53:08;;;;;;;4.90;1.83;;;6.50;99.90;;;;;;4996066;28;20418;-69
2021/12/28 04:55:33;;;;;;;5.67;1.43;;;6.60;99.90;;;;;;4992593;28;20449;-68
2021/12/28 04:57:59;;;;;;;1.87;0.80;;;6.60;99.90;;;;;;4995685;28;20419;-69
2021/12/28 05:00:25;;;;;;;5.00;1.20;;;6.60;99.90;;;;;;4995603;28;20214;-69
2021/12/28 05:02:50;;;;;;;3.00;1.23;;;6.60;99.90;;;;;;4992417;28;20200;-69
2021/12/28 05:05:16;;;;;;;10.63;2.30;;;6.60;99.90;;;;;;4995708;28;20202;-69
2021/12/28 05:07:42;;;;;;;3.77;1.10;;;6.60;99.90;;;;;;4989820;28;20184;-69
2021/12/28 05:10:09;;;;;;;2.23;0.90;;;6.60;99.90;;;;;;4993581;28;20226;-69
2021/12/28 05:12:35;;;;;;;1.80;0.90;;;6.60;99.90;;;;;;4993340;28;20700;-69
2021/12/28 05:15:02;;;;;;;5.23;0.70;;;6.60;99.90;;;;;;4998352;28;20422;-69
2021/12/28 05:17:28;;;;;;;2.03;0.80;;;6.60;99.90;;;;;;4989583;28;20466;-69
2021/12/28 05:19:53;;;;;;;2.53;0.70;;;6.50;99.90;;;;;;5002261;28;20450;-69
2021/12/28 05:22:19;;;;;;;2.83;0.73;;;6.50;99.90;;;;;;4993883;28;20437;-69
2021/12/28 05:24:45;;;;;;;2.00;0.93;;;6.50;99.90;;;;;;4997136;28;20216;-69
2021/12/28 05:27:10;;;;;;;1.60;0.70;;;6.50;99.90;;;;;;4988206;28;20183;-69
2021/12/28 05:29:36;;;;;;;1.50;0.60;;;6.50;99.90;;;;;;4988613;28;20812;-69
2021/12/28 05:32:02;;;;;;;2.43;0.80;;;6.50;99.90;;;;;;4988472;28;20621;-69
2021/12/28 05:34:28;;;;;;;2.17;1.00;;;6.50;99.90;;;;;;4988535;28;20684;-69
2021/12/28 05:36:53;;;;;;;1.70;0.93;;;6.50;99.90;;;;;;4989001;28;20430;-69
2021/12/28 05:39:19;;;;;;;2.50;0.80;;;6.50;99.90;;;;;;4993291;28;20266;-69
2021/12/28 05:41:45;;;;;;;2.20;1.03;;;6.40;99.90;;;;;;4990270;28;20192;-69
2021/12/28 05:44:10;;;;;;;3.83;0.77;;;6.40;99.90;;;;;;4989501;28;20187;-69
2021/12/28 05:46:36;;;;;;;1.80;0.73;;;6.40;99.90;;;;;;4990926;28;20617;-69
2021/12/28 05:49:02;;;;;;;1.80;0.90;;;6.40;99.90;;;;;;4989477;28;20586;-68
2021/12/28 05:51:28;;;;;;;2.90;1.20;;;6.40;99.90;;;;;;4993525;28;20313;-69
2021/12/28 05:53:53;;;;;;;2.07;0.50;;;6.70;99.90;;;;;;4990643;28;20538;-69
2021/12/28 05:56:19;;;;;;;1.60;1.00;;;6.60;99.90;;;;;;4989619;28;20184;-69
2021/12/28 05:58:45;;;;;;;1.10;0.40;;;6.60;99.90;;;;;;4991539;28;20219;-68
2021/12/28 06:01:11;;;;;;;1.33;0.70;;;6.70;99.90;;;;;;4994554;28;20198;-69
2021/12/28 06:03:36;;;;;;;1.60;0.50;;;6.60;99.90;;;;;;4989754;28;20192;-70
2021/12/28 06:06:02;;;;;;;3.97;0.70;;;6.60;99.90;;;;;;4995275;28;20464;-68
2021/12/28 06:08:28;;;;;;;2.13;0.80;;;6.60;99.90;;;;;;4990136;28;20544;-68
2021/12/28 06:10:53;;;;;;;6.23;1.00;;;6.60;99.90;;;;;;5002647;28;20218;-68
2021/12/28 06:13:19;;;;;;;1.67;0.73;;;6.60;99.90;;;;;;4988035;28;20195;-68
2021/12/28 06:15:46;;;;;;;5.57;1.00;;;6.60;99.90;;;;;;4987565;28;20188;-69
2021/12/28 06:18:12;;;;;;;1.40;0.60;;;6.50;99.90;;;;;;4993350;28;20214;-68
2021/12/28 06:20:37;;;;;;;4.17;1.17;;;6.50;99.90;;;;;;4991339;28;20478;-68
2021/12/28 06:23:03;;;;;;;2.30;0.90;;;6.50;99.90;;;;;;4994359;28;20198;-68
2021/12/28 06:25:29;;;;;;;1.27;0.60;;;6.50;99.90;;;;;;4992166;28;20222;-68
2021/12/28 06:27:54;;;;;;;3.30;1.00;;;6.50;99.90;;;;;;4994878;28;20495;-68
2021/12/28 06:30:20;;;;;;;2.13;0.70;;;6.50;99.90;;;;;;4994520;28;20187;-68
2021/12/28 06:32:46;;;;;;;1.30;0.70;;;6.50;99.90;;;;;;4997082;28;20187;-68
2021/12/28 06:35:12;;;;;;;1.60;0.70;;;6.50;99.90;;;;;;4985712;28;20195;-69
2021/12/28 06:37:38;;;;;;;3.73;1.33;;;6.50;99.90;;;;;;4993714;28;20289;-68
2021/12/28 06:40:05;;;;;;;3.20;1.20;;;6.60;99.90;;;;;;4997342;28;20430;-68
2021/12/28 06:42:31;;;;;;;1.53;0.70;;;6.50;99.90;;;;;;4989974;28;20443;-68
2021/12/28 06:44:56;;;;;;;2.10;0.90;;;6.60;99.90;;;;;;4993770;28;20513;-68
2021/12/28 06:47:22;;;;;;;1.50;0.60;;;6.60;99.90;;;;;;4992034;28;20208;-69
2021/12/28 06:49:48;;;;;;;1.67;0.73;;;6.50;99.90;;;;;;4994579;28;20527;-69
2021/12/28 06:52:14;;;;;;;1.43;0.57;;;6.60;99.90;;;;;;4992856;28;20250;-68
2021/12/28 06:54:40;;;;;;;1.27;0.70;;;6.60;99.90;;;;;;4996180;28;20202;-68
2021/12/28 06:57:11;;;;;;;5.03;0.60;;;6.70;99.90;;;;;;4994580;28;20731;-68
2021/12/28 06:59:43;;;;;;;1.57;0.60;;;6.70;99.90;;;;;;4994252;28;20784;-69
2021/12/28 07:02:09;;;;;;;1.20;0.50;;;6.70;99.90;;;;;;4992979;28;21043;-69
2021/12/28 07:04:35;;;;;;;4.13;0.70;;;6.70;99.90;;;;;;4995296;28;20467;-69
2021/12/28 07:07:01;;;;;;;3.87;0.87;;;6.70;99.90;;;;;;4993258;28;20427;-69
2021/12/28 07:09:26;;;;;;;5.60;0.80;;;6.80;99.90;;;;;;4996704;28;20187;-69
2021/12/28 07:11:52;;;;;;;2.67;0.77;;;6.70;99.90;;;;;;4994509;28;20194;-69
2021/12/28 07:14:17;;;;;;;4.33;0.83;;;6.90;99.90;;;;;;4996360;28;20203;-69
2021/12/28 07:16:43;;;;;;;3.87;0.97;;;6.80;99.90;;;;;;4993809;28;20183;-69
2021/12/28 07:19:10;;;;;;;2.47;1.17;;;6.90;99.90;;;;;;5000209;28;20210;-69
2021/12/28 07:21:40;;;;;;;1.83;0.70;;;6.80;99.90;;;;;;4993782;28;20282;-69
2021/12/28 07:24:07;;;;;;;1.50;0.50;;;6.90;99.90;;;;;;5000114;28;20483;-69
2021/12/28 07:26:34;;;;;;;1.83;0.70;;;6.70;99.90;;;;;;4989866;28;21217;-69
2021/12/28 07:29:00;;;;;;;1.63;0.70;;;6.70;99.90;;;;;;5002150;28;20917;-70
2021/12/28 07:31:26;;;;;;;1.80;0.80;;;6.70;99.90;;;;;;4986001;28;20435;-69
2021/12/28 07:33:51;;;;;;;1.60;0.70;;;6.70;99.90;;;;;;4996671;28;20483;-69
2021/12/28 07:36:18;;;;;;;1.90;0.90;;;6.70;99.90;;;;;;4997513;28;20215;-69
2021/12/28 07:38:43;;;;;;;1.10;0.40;;;6.70;99.90;;;;;;4997797;28;20266;-69
2021/12/28 07:41:09;;;;;;;1.20;0.50;;;6.70;99.90;;;;;;4993613;28;21165;-69
2021/12/28 07:43:35;;;;;;;1.20;0.57;;;6.70;99.90;;;;;;4994093;28;20191;-69
2021/12/28 07:46:00;;;;;;;1.53;0.70;;;6.70;99.90;;;;;;4989789;28;20282;-69
2021/12/28 07:48:26;;;;;;;1.20;0.53;;;6.80;99.90;;;;;;4998220;28;20188;-69
2021/12/28 07:50:52;;;;;;;1.87;0.60;;;6.90;99.90;;;;;;4989395;28;20657;-69
2021/12/28 07:53:17;;;;;;;1.30;0.60;;;6.90;99.90;;;;;;4997594;28;20254;-69
2021/12/28 07:55:43;;;;;;;1.13;0.50;;;7.00;99.90;;;;;;4998418;28;20191;-69
2021/12/28 07:58:09;;;;;;;1.27;0.50;;;7.00;99.90;;;;;;4995160;28;20536;-69
2021/12/28 08:00:34;;;;;;;1.20;0.50;;;7.00;99.90;;;;;;4987978;28;20542;-69
2021/12/28 08:03:03;;;;;;;1.60;0.60;;;7.10;99.90;;;;;;4998717;28;20936;-69
2021/12/28 08:05:29;;;;;;;1.30;0.57;;;7.10;99.90;;;;;;4988460;28;20212;-69
2021/12/28 08:07:55;;;;;;;1.10;0.50;;;7.10;99.90;;;;;;4988730;28;20545;-69
2021/12/28 08:10:22;;;;;;;1.20;0.60;;;7.10;99.90;;;;;;4989542;28;20527;-70
2021/12/28 08:12:49;;;;;;;1.20;0.60;;;7.10;99.90;;;;;;4995502;28;20183;-70
2021/12/28 08:15:16;;;;;;;1.10;0.50;;;7.20;99.90;;;;;;4987882;28;20434;-69
2021/12/28 08:17:41;;;;;;;1.40;0.50;;;7.20;99.90;;;;;;4983631;28;20445;-69
2021/12/28 08:20:09;;;;;;;1.10;0.50;;;7.20;99.90;;;;;;4991817;28;20451;-69
2021/12/28 08:22:37;;;;;;;1.10;0.50;;;7.20;99.90;;;;;;4993905;28;20345;-69
2021/12/28 08:25:04;;;;;;;1.40;0.53;;;7.20;99.90;;;;;;4995750;28;20540;-69
2021/12/28 08:27:30;;;;;;;1.10;0.50;;;7.20;99.90;;;;;;4982879;28;20450;-70
2021/12/28 08:29:56;;;;;;;3.00;0.60;;;7.20;99.90;;;;;;4993048;28;20430;-70
2021/12/28 08:32:23;;;;;;;1.37;0.63;;;7.20;99.90;;;;;;4995407;28;20180;-70
2021/12/28 08:34:49;;;;;;;1.47;0.60;;;7.30;99.90;;;;;;4983032;28;20206;-70
2021/12/28 08:37:15;;;;;;;1.10;0.40;;;7.20;99.90;;;;;;4989753;28;20418;-70
2021/12/28 08:39:41;;;;;;;1.97;0.50;;;7.30;99.90;;;;;;4989027;28;20474;-72
2021/12/28 08:42:07;;;;;;;3.30;0.60;;;7.30;99.90;;;;;;4983494;28;20218;-72
2021/12/28 08:44:33;;;;;;;1.20;0.40;;;7.30;99.90;;;;;;4991629;28;20215;-72
2021/12/28 08:46:58;;;;;;;1.20;0.50;;;7.30;99.90;;;;;;4988813;28;20207;-72
2021/12/28 08:49:26;;;;;;;1.13;0.47;;;7.40;99.90;;;;;;4990098;28;20974;-70
2021/12/28 08:51:52;;;;;;;1.10;0.40;;;7.40;99.90;;;;;;4987651;28;20653;-70
2021/12/28 08:54:17;;;;;;;2.10;0.60;;;7.40;99.90;;;;;;4990835;28;21132;-69
2021/12/28 08:56:45;;;;;;;2.17;0.70;;;7.40;99.90;;;;;;4987510;28;20434;-69
2021/12/28 08:59:13;;;;;;;1.20;0.50;;;7.50;99.90;;;;;;4984190;28;20195;-70
2021/12/28 09:01:39;;;;;;;1.77;0.60;;;7.50;99.90;;;;;;4990430;28;20997;-70
2021/12/28 09:04:05;;;;;;;1.40;0.50;;;7.60;99.90;;;;;;4995149;28;20430;-69
2021/12/28 09:06:30;;;;;;;1.40;0.60;;;7.60;99.90;;;;;;4987479;28;20470;-70
2021/12/28 09:08:56;;;;;;;1.20;0.50;;;7.60;99.90;;;;;;4995085;28;20647;-69
2021/12/28 09:11:22;;;;;;;3.67;0.60;;;7.60;99.90;;;;;;4995346;28;20183;-69
2021/12/28 09:13:48;;;;;;;2.60;1.10;;;7.60;99.90;;;;;;4995075;28;20198;-69
2021/12/28 09:16:13;;;;;;;1.70;0.83;;;7.60;99.90;;;;;;4987998;28;20762;-69
2021/12/28 09:18:40;;;;;;;1.30;0.63;;;7.70;99.90;;;;;;4979929;28;20210;-69
2021/12/28 09:21:06;;;;;;;1.77;0.70;;;7.80;99.90;;;;;;4991618;28;20327;-69
2021/12/28 09:23:31;;;;;;;1.50;0.70;;;7.90;99.90;;;;;;4989744;28;20430;-69
2021/12/28 09:25:57;;;;;;;2.50;0.97;;;7.80;99.90;;;;;;4990323;28;20462;-69
2021/12/28 09:28:23;;;;;;;2.00;0.70;;;7.90;99.90;;;;;;4993777;28;20186;-70
2021/12/28 09:30:49;;;;;;;1.40;0.70;;;7.90;99.90;;;;;;4993152;28;20223;-70
2021/12/28 09:33:15;;;;;;;2.73;0.80;;;8.00;99.90;;;;;;4993759;28;20192;-72
2021/12/28 09:35:42;;;;;;;2.40;0.73;;;8.10;99.90;;;;;;4991529;28;20465;-72
2021/12/28 09:38:07;;;;;;;1.20;0.50;;;8.10;99.90;;;;;;4988510;28;20434;-72
2021/12/28 09:40:34;;;;;;;1.40;0.60;;;8.10;99.90;;;;;;4987766;28;20599;-72
2021/12/28 09:43:03;;;;;;;1.10;0.50;;;8.00;99.90;;;;;;4987324;28;20534;-72
2021/12/28 09:45:29;;;;;;;1.10;0.50;;;8.10;99.90;;;;;;4988150;28;20482;-72
2021/12/28 09:47:55;;;;;;;1.23;0.53;;;8.20;99.90;;;;;;4986350;28;20419;-72
2021/12/28 09:50:21;;;;;;;1.40;0.60;;;8.20;99.90;;;;;;4989560;28;20282;-72
2021/12/28 09:52:49;;;;;;;1.20;0.60;;;8.40;99.90;;;;;;4986776;28;20303;-72
2021/12/28 09:55:22;;;;;;;1.40;0.60;;;8.60;99.90;;;;;;4987168;28;20882;-72
2021/12/28 09:57:49;;;;;;;1.80;0.70;;;8.60;99.90;;;;;;4988103;28;20419;-71
2021/12/28 10:00:17;;;;;;;1.20;0.50;;;8.50;99.90;;;;;;4986562;28;20493;-71
2021/12/28 10:02:43;;;;;;;1.10;0.40;;;8.50;99.90;;;;;;4981373;28;20884;-72
2021/12/28 10:05:12;;;;;;;1.20;0.60;;;8.50;99.90;;;;;;4990080;28;21012;-72
2021/12/28 10:07:45;;;;;;;1.23;0.57;;;8.60;99.90;;;;;;4989781;28;20899;-72
2021/12/28 10:10:11;;;;;;;1.53;0.60;;;8.60;99.90;;;;;;4990747;28;20431;-72
2021/12/28 10:12:48;;;;;;;1.10;0.40;;;8.50;99.90;;;;;;4999843;28;20910;-71
2021/12/28 10:15:21;;;;;;;1.20;0.50;;;8.50;99.90;;;;;;4991650;28;20446;-72
2021/12/28 10:17:51;;;;;;;1.30;0.60;;;8.60;99.90;;;;;;5001971;28;20950;-72
2021/12/28 10:20:24;;;;;;;1.20;0.60;;;8.60;99.90;;;;;;4992959;28;20470;-70
2021/12/28 10:22:58;;;;;;;1.30;0.60;;;8.70;99.90;;;;;;4990081;28;20441;-70
2021/12/28 10:25:27;;;;;;;1.30;0.53;;;8.70;99.90;;;;;;4995582;28;20560;-70
2021/12/28 10:27:58;;;;;;;2.73;0.70;;;8.70;99.90;;;;;;4993342;28;20426;-70
2021/12/28 10:30:27;;;;;;;1.40;0.70;;;8.70;99.90;;;;;;4997185;28;20430;-69
2021/12/28 10:32:59;;;;;;;1.50;0.60;;;8.70;99.90;;;;;;4999868;28;20553;-70
2021/12/28 10:35:28;;;;;;;1.47;0.70;;;8.70;99.90;;;;;;4991709;28;20438;-70
2021/12/28 10:37:57;;;;;;;7.17;0.70;;;8.70;99.90;;;;;;4986350;28;20439;-70
2021/12/28 10:40:44;;;;;;;2.60;0.60;;;8.80;99.90;;;;;;4984634;28;20537;-69
2021/12/28 10:43:12;;;;;;;3.40;0.97;;;8.80;99.90;;;;;;4986863;28;20518;-70
2021/12/28 10:45:42;;;;;;;3.47;0.93;;;8.90;99.90;;;;;;4992084;28;20477;-70
2021/12/28 10:48:18;;;;;;;2.90;0.97;;;9.00;99.90;;;;;;4992397;28;20467;-70
2021/12/28 10:50:45;;;;;;;1.60;0.87;;;9.00;99.90;;;;;;4993453;28;20442;-69
2021/12/28 10:53:23;;;;;;;1.47;0.70;;;9.00;99.90;;;;;;4996994;28;20511;-70
2021/12/28 10:55:54;;;;;;;3.20;1.20;;;8.90;99.90;;;;;;4994615;28;20915;-70
2021/12/28 10:58:31;;;;;;;1.60;0.77;;;9.00;99.90;;;;;;4995416;28;20446;-70
2021/12/28 11:01:15;;;;;;;2.43;1.00;;;9.00;99.90;;;;;;4996360;28;20464;-69
2021/12/28 11:03:49;;;;;;;1.57;0.73;;;9.00;99.90;;;;;;4994068;28;20435;-70
2021/12/28 11:06:15;;;;;;;1.67;0.73;;;9.10;99.90;;;;;;4995110;28;20489;-69
2021/12/28 11:08:43;;;;;;;1.73;0.90;;;9.20;99.90;;;;;;5002321;28;20427;-69
2021/12/28 11:11:11;;;;;;;2.20;0.83;;;9.20;99.90;;;;;;4989679;28;20283;-70
2021/12/28 11:13:37;;;;;;;2.80;0.80;;;9.20;99.90;;;;;;4991249;28;20439;-70
2021/12/28 11:16:06;;;;;;;2.13;0.90;;;9.30;99.90;;;;;;4988147;28;20502;-72
2021/12/28 11:18:41;;;;;;;13.87;1.10;;;9.30;99.90;;;;;;4979667;28;20196;-71
2021/12/28 11:21:12;;;;;;;3.83;0.87;;;9.30;99.90;;;;;;4985618;28;20456;-72
2021/12/28 11:23:38;;;;;;;1.70;0.70;;;9.40;99.90;;;;;;4987576;28;20442;-72
2021/12/28 11:26:22;;;;;;;1.30;0.50;;;9.30;99.90;;;;;;4988993;28;20469;-72
2021/12/28 11:29:26;;;;;;;2.53;1.00;;;9.30;99.90;;;;;;4989329;28;20420;-72
2021/12/28 11:31:55;;;;;;;1.10;0.40;;;9.40;99.90;;;;;;4974741;28;20449;-72
2021/12/28 11:34:26;;;;;;;2.13;0.73;;;9.40;99.90;;;;;;4990782;28;20783;-72
2021/12/28 11:36:54;;;;;;;1.70;0.60;;;9.40;99.90;;;;;;4988956;28;20442;-72
2021/12/28 11:39:27;;;;;;;1.80;0.80;;;9.40;99.90;;;;;;4984811;28;20466;-72
2021/12/28 11:41:53;;;;;;;1.40;0.53;;;9.40;99.90;;;;;;4990073;28;20526;-72
2021/12/28 11:44:20;;;;;;;1.53;0.50;;;9.40;99.90;;;;;;4990191;28;20812;-72
2021/12/28 11:46:47;;;;;;;1.47;0.50;;;9.40;99.90;;;;;;4990357;28;20445;-72
2021/12/28 11:49:15;;;;;;;1.60;0.80;;;9.40;99.90;;;;;;4989696;28;20419;-72
2021/12/28 11:51:46;;;;;;;1.97;0.70;;;9.40;99.90;;;;;;4994765;28;20439;-72
2021/12/28 11:54:14;;;;;;;2.23;0.70;;;9.40;99.90;;;;;;4985273;28;20419;-72
2021/12/28 11:56:44;;;;;;;1.30;0.60;;;9.40;99.90;;;;;;4995181;28;20975;-71
2021/12/28 11:59:20;;;;;;;1.50;0.70;;;9.40;99.90;;;;;;4990484;28;20479;-71
2021/12/28 12:01:55;;;;;;;1.30;0.50;;;9.40;99.90;;;;;;4989805;28;20445;-72
2021/12/28 12:04:30;;;;;;;1.10;0.50;;;9.40;99.90;;;;;;4988220;28;20887;-72
2021/12/28 12:07:05;;;;;;;2.23;0.70;;;9.40;99.90;;;;;;4981348;28;20981;-72
2021/12/28 12:09:34;;;;;;;5.53;0.50;;;9.40;99.90;;;;;;4989381;28;20414;-72
2021/12/28 12:12:09;;;;;;;1.40;0.50;;;9.40;99.90;;;;;;4994280;28;20426;-72
2021/12/28 12:14:57;;;;;;;1.20;0.50;;;9.50;99.90;;;;;;4992069;28;20430;-72
2021/12/28 12:17:28;;;;;;;1.20;0.50;;;9.50;99.90;;;;;;4986455;28;20466;-72
2021/12/28 12:20:15;;;;;;;1.20;0.50;;;9.60;99.90;;;;;;4989301;28;20488;-72
2021/12/28 12:22:43;;;;;;;1.30;0.50;;;9.70;99.90;;;;;;4990014;28;20469;-72
2021/12/28 12:25:14;;;;;;;1.30;0.50;;;9.80;99.90;;;;;;4992933;28;20469;-72
2021/12/28 12:27:49;;;;;;;1.10;0.50;;;9.90;99.90;;;;;;4993360;28;20419;-71
2021/12/28 12:30:17;;;;;;;1.53;0.50;;;9.90;99.90;;;;;;4992755;28;20996;-72
2021/12/28 12:32:58;;;;;;;4.07;0.50;;;10.00;99.90;;;;;;4999301;28;20533;-72
2021/12/28 12:35:36;;;;;;;1.10;0.40;;;10.00;99.90;;;;;;4990790;28;20517;-72
2021/12/28 12:38:14;;;;;;;1.47;0.50;;;10.00;99.90;;;;;;4986548;28;20910;-72
2021/12/28 12:40:59;;;;;;;1.50;0.63;;;10.00;99.90;;;;;;4991405;28;20777;-72
2021/12/28 12:43:50;;;;;;;1.20;0.40;;;10.00;99.90;;;;;;4992433;28;20470;-72
2021/12/28 12:46:25;;;;;;;1.20;0.50;;;10.10;99.90;;;;;;4989939;28;21068;-72
2021/12/28 12:48:54;;;;;;;1.33;0.63;;;10.00;99.90;;;;;;4995301;28;20429;-72
2021/12/28 12:51:22;;;;;;;1.10;0.40;;;10.00;99.90;;;;;;4994135;28;20427;-72
2021/12/28 12:53:54;;;;;;;1.17;0.43;;;10.00;99.90;;;;;;4998251;28;20473;-72
2021/12/28 12:56:23;;;;;;;1.97;0.83;;;10.00;99.90;;;;;;4989379;28;20443;-72
2021/12/28 12:58:52;;;;;;;2.57;0.70;;;10.00;99.90;;;;;;4988315;28;20534;-72
2021/12/28 13:01:36;;;;;;;1.50;0.50;;;9.90;99.90;;;;;;4983762;28;20450;-72